sensor_id;sensor_type;location;lat;lon;timestamp;pressure;altitude;pressure_sealevel;temperature
34125;BMP280;20110;53.120;5.786;2023-07-20T00:02:00;101454.28;;;19.11
34125;BMP280;20110;53.120;5.786;2023-07-20T00:04:26;101504.09;;;19.37
34125;BMP280;20110;53.120;5.786;2023-07-20T00:06:52;101464.44;;;19.03
34125;BMP280;20110;53.120;5.786;2023-07-20T00:09:17;101505.28;;;19.26
34125;BMP280;20110;53.120;5.786;2023-07-20T00:11:52;101525.72;;;19.29
34125;BMP280;20110;53.120;5.786;2023-07-20T00:14:18;101466.34;;;18.93
34125;BMP280;20110;53.120;5.786;2023-07-20T00:16:45;101461.44;;;18.81
34125;BMP280;20110;53.120;5.786;2023-07-20T00:19:17;101483.50;;;18.97
34125;BMP280;20110;53.120;5.786;2023-07-20T00:21:43;101493.25;;;18.93
34125;BMP280;20110;53.120;5.786;2023-07-20T00:24:09;101522.16;;;19.09
34125;BMP280;20110;53.120;5.786;2023-07-20T00:26:34;101463.94;;;18.62
34125;BMP280;20110;53.120;5.786;2023-07-20T00:29:00;101512.66;;;18.91
34125;BMP280;20110;53.120;5.786;2023-07-20T00:31:26;101522.00;;;18.90
34125;BMP280;20110;53.120;5.786;2023-07-20T00:33:52;101462.63;;;18.21
34125;BMP280;20110;53.120;5.786;2023-07-20T00:36:18;101509.13;;;18.39
34125;BMP280;20110;53.120;5.786;2023-07-20T00:38:44;101498.28;;;18.22
34125;BMP280;20110;53.120;5.786;2023-07-20T00:41:09;101507.06;;;18.22
34125;BMP280;20110;53.120;5.786;2023-07-20T00:43:35;101506.16;;;18.27
34125;BMP280;20110;53.120;5.786;2023-07-20T00:46:01;101421.94;;;17.67
34125;BMP280;20110;53.120;5.786;2023-07-20T00:48:30;101521.09;;;18.13
34125;BMP280;20110;53.120;5.786;2023-07-20T00:50:58;101485.28;;;17.78
34125;BMP280;20110;53.120;5.786;2023-07-20T00:53:24;101496.72;;;17.86
34125;BMP280;20110;53.120;5.786;2023-07-20T00:55:50;101493.00;;;17.74
34125;BMP280;20110;53.120;5.786;2023-07-20T00:58:16;101483.94;;;17.62
34125;BMP280;20110;53.120;5.786;2023-07-20T01:00:42;101483.59;;;17.58
34125;BMP280;20110;53.120;5.786;2023-07-20T01:03:07;101497.84;;;17.76
34125;BMP280;20110;53.120;5.786;2023-07-20T01:06:24;101507.19;;;17.99
34125;BMP280;20110;53.120;5.786;2023-07-20T01:09:14;101529.69;;;18.19
34125;BMP280;20110;53.120;5.786;2023-07-20T01:12:05;101533.09;;;18.20
34125;BMP280;20110;53.120;5.786;2023-07-20T01:14:34;101487.00;;;17.91
34125;BMP280;20110;53.120;5.786;2023-07-20T01:17:02;101525.56;;;18.18
34125;BMP280;20110;53.120;5.786;2023-07-20T01:19:28;101527.00;;;18.19
34125;BMP280;20110;53.120;5.786;2023-07-20T01:22:13;101533.78;;;18.20
34125;BMP280;20110;53.120;5.786;2023-07-20T01:33:36;101529.53;;;18.42
34125;BMP280;20110;53.120;5.786;2023-07-20T01:36:03;101526.53;;;18.38
34125;BMP280;20110;53.120;5.786;2023-07-20T01:38:29;101515.13;;;18.22
34125;BMP280;20110;53.120;5.786;2023-07-20T01:40:57;101525.91;;;18.22
34125;BMP280;20110;53.120;5.786;2023-07-20T01:43:23;101524.31;;;18.19
34125;BMP280;20110;53.120;5.786;2023-07-20T01:45:48;101519.47;;;18.18
34125;BMP280;20110;53.120;5.786;2023-07-20T01:48:14;101518.41;;;18.13
34125;BMP280;20110;53.120;5.786;2023-07-20T01:50:40;101521.16;;;18.05
34125;BMP280;20110;53.120;5.786;2023-07-20T01:53:06;101514.91;;;18.03
34125;BMP280;20110;53.120;5.786;2023-07-20T01:55:32;101488.69;;;17.79
34125;BMP280;20110;53.120;5.786;2023-07-20T01:57:58;101514.78;;;17.93
34125;BMP280;20110;53.120;5.786;2023-07-20T02:00:25;101518.66;;;18.00
34125;BMP280;20110;53.120;5.786;2023-07-20T02:02:51;101510.47;;;17.98
34125;BMP280;20110;53.120;5.786;2023-07-20T02:05:17;101504.06;;;17.86
34125;BMP280;20110;53.120;5.786;2023-07-20T02:07:43;101450.16;;;17.44
34125;BMP280;20110;53.120;5.786;2023-07-20T02:10:09;101514.78;;;17.93
34125;BMP280;20110;53.120;5.786;2023-07-20T02:12:35;101513.00;;;17.88
34125;BMP280;20110;53.120;5.786;2023-07-20T02:15:02;101496.59;;;17.77
34125;BMP280;20110;53.120;5.786;2023-07-20T02:17:28;101511.25;;;17.83
34125;BMP280;20110;53.120;5.786;2023-07-20T02:19:56;101511.44;;;17.78
34125;BMP280;20110;53.120;5.786;2023-07-20T02:22:23;101520.78;;;17.77
34125;BMP280;20110;53.120;5.786;2023-07-20T02:24:49;101507.72;;;17.65
34125;BMP280;20110;53.120;5.786;2023-07-20T02:27:16;101516.13;;;17.69
34125;BMP280;20110;53.120;5.786;2023-07-20T02:29:42;101507.00;;;17.65
34125;BMP280;20110;53.120;5.786;2023-07-20T02:32:09;101514.00;;;17.68
34125;BMP280;20110;53.120;5.786;2023-07-20T02:34:38;101483.09;;;17.44
34125;BMP280;20110;53.120;5.786;2023-07-20T02:37:04;101500.63;;;17.53
34125;BMP280;20110;53.120;5.786;2023-07-20T02:39:30;101506.69;;;17.53
34125;BMP280;20110;53.120;5.786;2023-07-20T02:41:56;101520.44;;;17.65
34125;BMP280;20110;53.120;5.786;2023-07-20T02:44:22;101502.75;;;17.47
34125;BMP280;20110;53.120;5.786;2023-07-20T02:46:48;101503.31;;;17.45
34125;BMP280;20110;53.120;5.786;2023-07-20T02:49:17;101515.63;;;17.56
34125;BMP280;20110;53.120;5.786;2023-07-20T02:51:43;101517.59;;;17.55
34125;BMP280;20110;53.120;5.786;2023-07-20T02:54:09;101511.19;;;17.51
34125;BMP280;20110;53.120;5.786;2023-07-20T02:56:35;101515.13;;;17.50
34125;BMP280;20110;53.120;5.786;2023-07-20T02:59:02;101513.72;;;17.41
34125;BMP280;20110;53.120;5.786;2023-07-20T03:01:28;101507.66;;;17.41
34125;BMP280;20110;53.120;5.786;2023-07-20T03:03:55;101513.16;;;17.43
34125;BMP280;20110;53.120;5.786;2023-07-20T03:06:21;101529.78;;;17.49
34125;BMP280;20110;53.120;5.786;2023-07-20T03:08:48;101450.09;;;16.88
34125;BMP280;20110;53.120;5.786;2023-07-20T03:11:18;101529.13;;;17.41
34125;BMP280;20110;53.120;5.786;2023-07-20T03:13:45;101505.16;;;17.20
34125;BMP280;20110;53.120;5.786;2023-07-20T03:16:13;101500.34;;;17.18
34125;BMP280;20110;53.120;5.786;2023-07-20T03:18:41;101501.97;;;17.14
34125;BMP280;20110;53.120;5.786;2023-07-20T03:21:09;101536.09;;;17.36
34125;BMP280;20110;53.120;5.786;2023-07-20T03:23:40;101523.59;;;17.31
34125;BMP280;20110;53.120;5.786;2023-07-20T03:26:06;101537.34;;;17.35
34125;BMP280;20110;53.120;5.786;2023-07-20T03:28:36;101474.44;;;16.90
34125;BMP280;20110;53.120;5.786;2023-07-20T03:31:03;101535.03;;;17.31
34125;BMP280;20110;53.120;5.786;2023-07-20T03:33:30;101531.78;;;17.33
34125;BMP280;20110;53.120;5.786;2023-07-20T03:35:57;101456.00;;;16.79
34125;BMP280;20110;53.120;5.786;2023-07-20T03:38:24;101530.00;;;17.36
34125;BMP280;20110;53.120;5.786;2023-07-20T03:40:55;101532.16;;;17.37
34125;BMP280;20110;53.120;5.786;2023-07-20T03:43:22;101490.53;;;17.06
34125;BMP280;20110;53.120;5.786;2023-07-20T03:45:48;101526.06;;;17.37
34125;BMP280;20110;53.120;5.786;2023-07-20T03:48:23;101526.97;;;17.39
34125;BMP280;20110;53.120;5.786;2023-07-20T03:50:52;101507.09;;;17.35
34125;BMP280;20110;53.120;5.786;2023-07-20T03:53:19;101521.56;;;17.54
34125;BMP280;20110;53.120;5.786;2023-07-20T03:55:49;101535.06;;;17.79
34125;BMP280;20110;53.120;5.786;2023-07-20T03:58:16;101531.78;;;17.96
34125;BMP280;20110;53.120;5.786;2023-07-20T04:00:47;101536.75;;;18.07
34125;BMP280;20110;53.120;5.786;2023-07-20T04:03:14;101533.63;;;18.18
34125;BMP280;20110;53.120;5.786;2023-07-20T04:05:40;101529.84;;;18.21
34125;BMP280;20110;53.120;5.786;2023-07-20T04:08:06;101526.28;;;18.19
34125;BMP280;20110;53.120;5.786;2023-07-20T04:10:32;101530.94;;;18.18
34125;BMP280;20110;53.120;5.786;2023-07-20T04:12:59;101519.19;;;18.06
34125;BMP280;20110;53.120;5.786;2023-07-20T04:15:25;101523.16;;;18.05
34125;BMP280;20110;53.120;5.786;2023-07-20T04:17:51;101497.09;;;17.83
34125;BMP280;20110;53.120;5.786;2023-07-20T04:20:17;101531.53;;;18.09
34125;BMP280;20110;53.120;5.786;2023-07-20T04:22:44;101524.72;;;18.08
34125;BMP280;20110;53.120;5.786;2023-07-20T04:25:10;101505.28;;;17.92
34125;BMP280;20110;53.120;5.786;2023-07-20T04:27:36;101529.72;;;18.11
34125;BMP280;20110;53.120;5.786;2023-07-20T04:30:03;101534.19;;;18.17
34125;BMP280;20110;53.120;5.786;2023-07-20T04:32:29;101530.09;;;18.08
34125;BMP280;20110;53.120;5.786;2023-07-20T04:34:56;101538.47;;;18.20
34125;BMP280;20110;53.120;5.786;2023-07-20T04:37:22;101544.88;;;18.24
34125;BMP280;20110;53.120;5.786;2023-07-20T04:39:47;101561.19;;;18.26
34125;BMP280;20110;53.120;5.786;2023-07-20T04:42:13;101561.38;;;18.28
34125;BMP280;20110;53.120;5.786;2023-07-20T04:44:39;101539.16;;;18.20
34125;BMP280;20110;53.120;5.786;2023-07-20T04:47:05;101542.03;;;18.22
34125;BMP280;20110;53.120;5.786;2023-07-20T04:49:31;101509.91;;;17.99
34125;BMP280;20110;53.120;5.786;2023-07-20T04:51:56;101568.63;;;18.43
34125;BMP280;20110;53.120;5.786;2023-07-20T04:54:22;101556.47;;;18.34
34125;BMP280;20110;53.120;5.786;2023-07-20T04:56:48;101566.75;;;18.53
34125;BMP280;20110;53.120;5.786;2023-07-20T04:59:14;101542.50;;;18.36
34125;BMP280;20110;53.120;5.786;2023-07-20T05:01:40;101529.25;;;18.30
34125;BMP280;20110;53.120;5.786;2023-07-20T05:04:06;101546.72;;;18.46
34125;BMP280;20110;53.120;5.786;2023-07-20T05:06:32;101573.78;;;18.73
34125;BMP280;20110;53.120;5.786;2023-07-20T05:08:57;101551.75;;;18.67
34125;BMP280;20110;53.120;5.786;2023-07-20T05:11:23;101504.63;;;18.41
34125;BMP280;20110;53.120;5.786;2023-07-20T05:13:49;101570.34;;;18.98
34125;BMP280;20110;53.120;5.786;2023-07-20T05:16:15;101548.16;;;18.89
34125;BMP280;20110;53.120;5.786;2023-07-20T05:18:40;101578.78;;;19.19
34125;BMP280;20110;53.120;5.786;2023-07-20T05:21:06;101581.16;;;19.32
34125;BMP280;20110;53.120;5.786;2023-07-20T05:23:33;101576.97;;;19.39
34125;BMP280;20110;53.120;5.786;2023-07-20T05:25:59;101562.97;;;19.40
34125;BMP280;20110;53.120;5.786;2023-07-20T05:28:26;101583.16;;;19.66
34125;BMP280;20110;53.120;5.786;2023-07-20T05:30:53;101551.91;;;19.63
34125;BMP280;20110;53.120;5.786;2023-07-20T05:33:20;101565.50;;;19.82
34125;BMP280;20110;53.120;5.786;2023-07-20T05:35:47;101568.19;;;19.99
34125;BMP280;20110;53.120;5.786;2023-07-20T05:38:13;101558.69;;;20.08
34125;BMP280;20110;53.120;5.786;2023-07-20T05:40:41;101541.72;;;20.15
34125;BMP280;20110;53.120;5.786;2023-07-20T05:43:08;101562.13;;;20.55
34125;BMP280;20110;53.120;5.786;2023-07-20T05:45:34;101578.00;;;20.87
34125;BMP280;20110;53.120;5.786;2023-07-20T05:48:00;101540.31;;;20.79
34125;BMP280;20110;53.120;5.786;2023-07-20T05:50:26;101568.03;;;21.18
34125;BMP280;20110;53.120;5.786;2023-07-20T05:52:54;101569.72;;;21.52
34125;BMP280;20110;53.120;5.786;2023-07-20T05:55:20;101509.97;;;21.48
34125;BMP280;20110;53.120;5.786;2023-07-20T05:57:47;101579.38;;;22.15
34125;BMP280;20110;53.120;5.786;2023-07-20T06:00:14;101577.09;;;22.11
34125;BMP280;20110;53.120;5.786;2023-07-20T06:02:40;101563.09;;;21.94
34125;BMP280;20110;53.120;5.786;2023-07-20T06:05:09;101547.75;;;21.77
34125;BMP280;20110;53.120;5.786;2023-07-20T06:07:38;101578.59;;;21.93
34125;BMP280;20110;53.120;5.786;2023-07-20T06:10:05;101580.31;;;21.98
34125;BMP280;20110;53.120;5.786;2023-07-20T06:12:31;101548.59;;;21.80
34125;BMP280;20110;53.120;5.786;2023-07-20T06:15:02;101569.22;;;21.94
34125;BMP280;20110;53.120;5.786;2023-07-20T06:17:28;101577.44;;;21.96
34125;BMP280;20110;53.120;5.786;2023-07-20T06:19:54;101577.75;;;21.91
34125;BMP280;20110;53.120;5.786;2023-07-20T06:22:19;101562.41;;;21.84
34125;BMP280;20110;53.120;5.786;2023-07-20T06:24:45;101564.22;;;21.91
34125;BMP280;20110;53.120;5.786;2023-07-20T06:27:11;101544.59;;;21.81
34125;BMP280;20110;53.120;5.786;2023-07-20T06:29:37;101577.56;;;22.08
34125;BMP280;20110;53.120;5.786;2023-07-20T06:32:05;101553.09;;;21.96
34125;BMP280;20110;53.120;5.786;2023-07-20T06:34:31;101513.19;;;21.75
34125;BMP280;20110;53.120;5.786;2023-07-20T06:36:56;101584.94;;;22.38
34125;BMP280;20110;53.120;5.786;2023-07-20T06:39:22;101576.25;;;22.40
34125;BMP280;20110;53.120;5.786;2023-07-20T06:41:48;101550.78;;;22.33
34125;BMP280;20110;53.120;5.786;2023-07-20T06:44:14;101596.34;;;22.68
34125;BMP280;20110;53.120;5.786;2023-07-20T06:46:40;101521.22;;;22.26
34125;BMP280;20110;53.120;5.786;2023-07-20T06:49:06;101584.69;;;22.77
34125;BMP280;20110;53.120;5.786;2023-07-20T06:51:35;101591.63;;;22.89
34125;BMP280;20110;53.120;5.786;2023-07-20T06:54:01;101574.16;;;22.81
34125;BMP280;20110;53.120;5.786;2023-07-20T06:56:27;101554.25;;;22.88
34125;BMP280;20110;53.120;5.786;2023-07-20T06:58:53;101590.03;;;23.40
34125;BMP280;20110;53.120;5.786;2023-07-20T07:01:18;101583.22;;;23.63
34125;BMP280;20110;53.120;5.786;2023-07-20T07:03:46;101612.75;;;24.03
34125;BMP280;20110;53.120;5.786;2023-07-20T07:06:12;101582.22;;;23.91
34125;BMP280;20110;53.120;5.786;2023-07-20T07:08:38;101600.13;;;24.31
34125;BMP280;20110;53.120;5.786;2023-07-20T07:11:03;101533.22;;;24.12
34125;BMP280;20110;53.120;5.786;2023-07-20T07:13:29;101601.75;;;24.85
34125;BMP280;20110;53.120;5.786;2023-07-20T07:15:56;101608.78;;;24.90
34125;BMP280;20110;53.120;5.786;2023-07-20T07:18:22;101606.94;;;24.80
34125;BMP280;20110;53.120;5.786;2023-07-20T07:20:52;101581.03;;;24.54
34125;BMP280;20110;53.120;5.786;2023-07-20T07:23:18;101613.19;;;24.83
34125;BMP280;20110;53.120;5.786;2023-07-20T07:25:44;101618.91;;;25.01
34125;BMP280;20110;53.120;5.786;2023-07-20T07:28:10;101622.91;;;25.25
34125;BMP280;20110;53.120;5.786;2023-07-20T07:30:36;101582.50;;;25.06
34125;BMP280;20110;53.120;5.786;2023-07-20T07:33:01;101626.50;;;25.28
34125;BMP280;20110;53.120;5.786;2023-07-20T07:35:27;101602.19;;;24.81
34125;BMP280;20110;53.120;5.786;2023-07-20T07:37:53;101592.75;;;24.45
34125;BMP280;20110;53.120;5.786;2023-07-20T07:40:19;101611.66;;;24.43
34125;BMP280;20110;53.120;5.786;2023-07-20T07:42:45;101613.09;;;24.32
34125;BMP280;20110;53.120;5.786;2023-07-20T07:45:11;101624.88;;;24.37
34125;BMP280;20110;53.120;5.786;2023-07-20T07:47:37;101604.63;;;24.15
34125;BMP280;20110;53.120;5.786;2023-07-20T07:50:03;101608.50;;;24.23
34125;BMP280;20110;53.120;5.786;2023-07-20T07:52:29;101596.44;;;24.26
34125;BMP280;20110;53.120;5.786;2023-07-20T07:54:55;101623.06;;;24.65
34125;BMP280;20110;53.120;5.786;2023-07-20T07:57:21;101628.47;;;24.76
34125;BMP280;20110;53.120;5.786;2023-07-20T07:59:47;101607.47;;;24.65
34125;BMP280;20110;53.120;5.786;2023-07-20T08:02:12;101629.16;;;24.77
34125;BMP280;20110;53.120;5.786;2023-07-20T08:04:38;101634.84;;;24.69
34125;BMP280;20110;53.120;5.786;2023-07-20T08:07:05;101564.47;;;24.25
34125;BMP280;20110;53.120;5.786;2023-07-20T08:09:30;101615.84;;;24.69
34125;BMP280;20110;53.120;5.786;2023-07-20T08:11:56;101622.59;;;24.94
34125;BMP280;20110;53.120;5.786;2023-07-20T08:14:22;101630.72;;;25.05
34125;BMP280;20110;53.120;5.786;2023-07-20T08:16:48;101635.41;;;25.16
34125;BMP280;20110;53.120;5.786;2023-07-20T08:19:14;101614.75;;;25.25
34125;BMP280;20110;53.120;5.786;2023-07-20T08:21:40;101625.16;;;25.67
34125;BMP280;20110;53.120;5.786;2023-07-20T08:24:06;101613.19;;;25.86
34125;BMP280;20110;53.120;5.786;2023-07-20T08:26:32;101626.47;;;26.07
34125;BMP280;20110;53.120;5.786;2023-07-20T08:28:58;101620.63;;;26.13
34125;BMP280;20110;53.120;5.786;2023-07-20T08:31:24;101611.88;;;26.14
34125;BMP280;20110;53.120;5.786;2023-07-20T08:33:50;101629.69;;;26.31
34125;BMP280;20110;53.120;5.786;2023-07-20T08:36:16;101633.09;;;26.32
34125;BMP280;20110;53.120;5.786;2023-07-20T08:38:42;101629.38;;;26.39
34125;BMP280;20110;53.120;5.786;2023-07-20T08:41:09;101621.88;;;26.39
34125;BMP280;20110;53.120;5.786;2023-07-20T08:43:37;101630.72;;;26.67
34125;BMP280;20110;53.120;5.786;2023-07-20T08:46:05;101631.22;;;26.93
34125;BMP280;20110;53.120;5.786;2023-07-20T08:48:31;101617.44;;;27.04
34125;BMP280;20110;53.120;5.786;2023-07-20T08:50:59;101635.81;;;27.20
34125;BMP280;20110;53.120;5.786;2023-07-20T08:53:27;101599.31;;;26.95
34125;BMP280;20110;53.120;5.786;2023-07-20T08:55:53;101634.78;;;27.27
34125;BMP280;20110;53.120;5.786;2023-07-20T08:58:20;101596.59;;;27.11
34125;BMP280;20110;53.120;5.786;2023-07-20T09:00:47;101627.34;;;27.43
34125;BMP280;20110;53.120;5.786;2023-07-20T09:03:16;101588.94;;;27.54
34125;BMP280;20110;53.120;5.786;2023-07-20T09:05:42;101619.69;;;28.39
34125;BMP280;20110;53.120;5.786;2023-07-20T09:08:09;101600.41;;;28.53
34125;BMP280;20110;53.120;5.786;2023-07-20T09:10:34;101620.81;;;28.70
34125;BMP280;20110;53.120;5.786;2023-07-20T09:13:00;101618.72;;;28.33
34125;BMP280;20110;53.120;5.786;2023-07-20T09:15:26;101636.44;;;28.14
34125;BMP280;20110;53.120;5.786;2023-07-20T09:17:52;101631.66;;;27.97
34125;BMP280;20110;53.120;5.786;2023-07-20T09:20:20;101609.59;;;27.75
34125;BMP280;20110;53.120;5.786;2023-07-20T09:22:46;101644.41;;;27.92
34125;BMP280;20110;53.120;5.786;2023-07-20T09:25:15;101630.88;;;27.79
34125;BMP280;20110;53.120;5.786;2023-07-20T09:27:47;101656.22;;;27.97
34125;BMP280;20110;53.120;5.786;2023-07-20T09:30:15;101643.91;;;28.14
34125;BMP280;20110;53.120;5.786;2023-07-20T09:32:43;101651.78;;;28.57
34125;BMP280;20110;53.120;5.786;2023-07-20T09:35:21;101611.91;;;28.69
34125;BMP280;20110;53.120;5.786;2023-07-20T09:38:00;101639.88;;;29.42
34125;BMP280;20110;53.120;5.786;2023-07-20T09:40:27;101626.75;;;29.39
34125;BMP280;20110;53.120;5.786;2023-07-20T09:42:54;101664.34;;;29.38
34125;BMP280;20110;53.120;5.786;2023-07-20T09:45:33;101636.63;;;29.09
34125;BMP280;20110;53.120;5.786;2023-07-20T09:48:06;101630.41;;;29.26
34125;BMP280;20110;53.120;5.786;2023-07-20T09:50:33;101637.91;;;29.65
34125;BMP280;20110;53.120;5.786;2023-07-20T09:53:01;101654.25;;;30.04
34125;BMP280;20110;53.120;5.786;2023-07-20T09:55:29;101582.75;;;29.74
34125;BMP280;20110;53.120;5.786;2023-07-20T09:57:56;101647.44;;;30.27
34125;BMP280;20110;53.120;5.786;2023-07-20T10:00:22;101644.69;;;30.05
34125;BMP280;20110;53.120;5.786;2023-07-20T10:02:52;101636.78;;;29.93
34125;BMP280;20110;53.120;5.786;2023-07-20T10:05:19;101649.03;;;30.12
34125;BMP280;20110;53.120;5.786;2023-07-20T10:07:49;101638.88;;;30.17
34125;BMP280;20110;53.120;5.786;2023-07-20T10:10:18;101596.88;;;29.67
34125;BMP280;20110;53.120;5.786;2023-07-20T10:12:48;101633.34;;;29.93
34125;BMP280;20110;53.120;5.786;2023-07-20T10:15:20;101637.81;;;30.26
34125;BMP280;20110;53.120;5.786;2023-07-20T10:18:20;101570.31;;;29.91
34125;BMP280;20110;53.120;5.786;2023-07-20T10:20:48;101625.31;;;30.21
34125;BMP280;20110;53.120;5.786;2023-07-20T10:23:15;101591.47;;;29.47
34125;BMP280;20110;53.120;5.786;2023-07-20T10:25:42;101617.25;;;29.22
34125;BMP280;20110;53.120;5.786;2023-07-20T10:28:11;101604.28;;;28.66
34125;BMP280;20110;53.120;5.786;2023-07-20T10:30:38;101648.09;;;28.85
34125;BMP280;20110;53.120;5.786;2023-07-20T10:33:05;101579.78;;;28.50
34125;BMP280;20110;53.120;5.786;2023-07-20T10:35:52;101641.66;;;29.75
34125;BMP280;20110;53.120;5.786;2023-07-20T10:38:18;101641.03;;;31.13
34125;BMP280;20110;53.120;5.786;2023-07-20T10:43:19;101652.00;;;34.24
34125;BMP280;20110;53.120;5.786;2023-07-20T10:45:51;101628.66;;;33.79
34125;BMP280;20110;53.120;5.786;2023-07-20T10:48:25;101641.69;;;32.92
34125;BMP280;20110;53.120;5.786;2023-07-20T10:51:14;101623.63;;;31.58
34125;BMP280;20110;53.120;5.786;2023-07-20T10:53:45;101631.25;;;30.82
34125;BMP280;20110;53.120;5.786;2023-07-20T10:56:19;101648.34;;;31.30
34125;BMP280;20110;53.120;5.786;2023-07-20T10:58:45;101570.03;;;32.17
34125;BMP280;20110;53.120;5.786;2023-07-20T11:01:17;101651.84;;;34.11
34125;BMP280;20110;53.120;5.786;2023-07-20T11:03:48;101619.63;;;34.90
34125;BMP280;20110;53.120;5.786;2023-07-20T11:09:09;101655.44;;;35.68
34125;BMP280;20110;53.120;5.786;2023-07-20T11:11:46;101646.72;;;36.16
34125;BMP280;20110;53.120;5.786;2023-07-20T11:14:24;101623.78;;;35.89
34125;BMP280;20110;53.120;5.786;2023-07-20T11:16:52;101640.84;;;35.54
34125;BMP280;20110;53.120;5.786;2023-07-20T11:19:24;101623.28;;;34.43
34125;BMP280;20110;53.120;5.786;2023-07-20T11:21:52;101650.53;;;34.18
34125;BMP280;20110;53.120;5.786;2023-07-20T11:24:19;101644.59;;;33.42
34125;BMP280;20110;53.120;5.786;2023-07-20T11:26:53;101612.44;;;32.39
34125;BMP280;20110;53.120;5.786;2023-07-20T11:29:22;101590.28;;;31.99
34125;BMP280;20110;53.120;5.786;2023-07-20T11:31:49;101571.09;;;33.09
34125;BMP280;20110;53.120;5.786;2023-07-20T11:34:18;101630.44;;;34.66
34125;BMP280;20110;53.120;5.786;2023-07-20T11:36:48;101547.78;;;34.80
34125;BMP280;20110;53.120;5.786;2023-07-20T11:39:17;101637.56;;;35.83
34125;BMP280;20110;53.120;5.786;2023-07-20T11:41:55;101628.31;;;35.39
34125;BMP280;20110;53.120;5.786;2023-07-20T11:44:24;101623.88;;;35.03
34125;BMP280;20110;53.120;5.786;2023-07-20T11:47:07;101638.00;;;34.09
34125;BMP280;20110;53.120;5.786;2023-07-20T11:49:42;101636.91;;;34.31
34125;BMP280;20110;53.120;5.786;2023-07-20T11:52:11;101622.38;;;33.30
34125;BMP280;20110;53.120;5.786;2023-07-20T11:54:40;101612.13;;;33.79
34125;BMP280;20110;53.120;5.786;2023-07-20T11:57:06;101638.50;;;35.16
34125;BMP280;20110;53.120;5.786;2023-07-20T11:59:32;101601.34;;;35.31
34125;BMP280;20110;53.120;5.786;2023-07-20T12:02:02;101599.59;;;34.22
34125;BMP280;20110;53.120;5.786;2023-07-20T12:04:30;101637.38;;;34.73
34125;BMP280;20110;53.120;5.786;2023-07-20T12:06:56;101629.41;;;35.05
34125;BMP280;20110;53.120;5.786;2023-07-20T12:09:23;101635.88;;;35.32
34125;BMP280;20110;53.120;5.786;2023-07-20T12:11:50;101636.38;;;35.08
34125;BMP280;20110;53.120;5.786;2023-07-20T12:14:16;101631.59;;;35.17
34125;BMP280;20110;53.120;5.786;2023-07-20T12:16:42;101632.63;;;35.64
34125;BMP280;20110;53.120;5.786;2023-07-20T12:19:13;101549.66;;;35.54
34125;BMP280;20110;53.120;5.786;2023-07-20T12:21:41;101637.81;;;36.40
34125;BMP280;20110;53.120;5.786;2023-07-20T12:24:08;101594.94;;;36.37
34125;BMP280;20110;53.120;5.786;2023-07-20T12:26:36;101613.63;;;36.89
34125;BMP280;20110;53.120;5.786;2023-07-20T12:29:03;101600.03;;;35.42
34125;BMP280;20110;53.120;5.786;2023-07-20T12:31:30;101610.34;;;35.38
34125;BMP280;20110;53.120;5.786;2023-07-20T12:33:57;101608.34;;;35.48
34125;BMP280;20110;53.120;5.786;2023-07-20T12:36:24;101594.66;;;35.70
34125;BMP280;20110;53.120;5.786;2023-07-20T12:38:50;101630.78;;;36.11
34125;BMP280;20110;53.120;5.786;2023-07-20T12:41:16;101623.28;;;36.39
34125;BMP280;20110;53.120;5.786;2023-07-20T12:43:44;101612.97;;;36.70
34125;BMP280;20110;53.120;5.786;2023-07-20T12:46:12;101588.75;;;36.77
34125;BMP280;20110;53.120;5.786;2023-07-20T12:48:39;101623.31;;;37.10
34125;BMP280;20110;53.120;5.786;2023-07-20T12:51:08;101541.66;;;36.51
34125;BMP280;20110;53.120;5.786;2023-07-20T12:53:35;101577.44;;;35.80
34125;BMP280;20110;53.120;5.786;2023-07-20T12:56:01;101620.25;;;35.79
34125;BMP280;20110;53.120;5.786;2023-07-20T12:58:27;101620.44;;;36.17
34125;BMP280;20110;53.120;5.786;2023-07-20T13:00:54;101591.47;;;36.32
34125;BMP280;20110;53.120;5.786;2023-07-20T13:03:21;101621.28;;;36.90
34125;BMP280;20110;53.120;5.786;2023-07-20T13:05:47;101620.56;;;36.80
34125;BMP280;20110;53.120;5.786;2023-07-20T13:08:15;101580.75;;;35.50
34125;BMP280;20110;53.120;5.786;2023-07-20T13:10:41;101520.56;;;33.84
34125;BMP280;20110;53.120;5.786;2023-07-20T13:13:07;101610.44;;;33.59
34125;BMP280;20110;53.120;5.786;2023-07-20T13:15:42;101606.22;;;33.12
34125;BMP280;20110;53.120;5.786;2023-07-20T13:18:09;101534.75;;;32.05
34125;BMP280;20110;53.120;5.786;2023-07-20T13:20:35;101579.31;;;32.01
34125;BMP280;20110;53.120;5.786;2023-07-20T13:23:00;101607.22;;;31.90
34125;BMP280;20110;53.120;5.786;2023-07-20T13:25:26;101594.34;;;31.67
34125;BMP280;20110;53.120;5.786;2023-07-20T13:27:53;101599.13;;;31.66
34125;BMP280;20110;53.120;5.786;2023-07-20T13:30:19;101599.09;;;31.64
34125;BMP280;20110;53.120;5.786;2023-07-20T13:32:47;101583.88;;;31.61
34125;BMP280;20110;53.120;5.786;2023-07-20T13:35:12;101495.03;;;30.91
34125;BMP280;20110;53.120;5.786;2023-07-20T13:37:39;101563.88;;;31.57
34125;BMP280;20110;53.120;5.786;2023-07-20T13:40:06;101586.53;;;31.85
34125;BMP280;20110;53.120;5.786;2023-07-20T13:42:35;101571.63;;;31.64
34125;BMP280;20110;53.120;5.786;2023-07-20T13:45:01;101587.47;;;31.40
34125;BMP280;20110;53.120;5.786;2023-07-20T13:47:27;101584.94;;;31.48
34125;BMP280;20110;53.120;5.786;2023-07-20T13:49:53;101579.78;;;31.62
34125;BMP280;20110;53.120;5.786;2023-07-20T13:52:19;101578.00;;;31.73
34125;BMP280;20110;53.120;5.786;2023-07-20T13:54:45;101517.72;;;31.49
34125;BMP280;20110;53.120;5.786;2023-07-20T13:57:11;101571.84;;;31.74
34125;BMP280;20110;53.120;5.786;2023-07-20T13:59:37;101570.16;;;31.61
34125;BMP280;20110;53.120;5.786;2023-07-20T14:02:03;101580.44;;;31.61
34125;BMP280;20110;53.120;5.786;2023-07-20T14:04:29;101578.94;;;31.56
34125;BMP280;20110;53.120;5.786;2023-07-20T14:06:55;101547.94;;;31.21
34125;BMP280;20110;53.120;5.786;2023-07-20T14:09:21;101520.31;;;31.15
34125;BMP280;20110;53.120;5.786;2023-07-20T14:11:46;101569.03;;;31.42
34125;BMP280;20110;53.120;5.786;2023-07-20T14:14:13;101556.34;;;31.01